الصفحة الرئيسية
METAR-TAF:

METAR-TAF

مطار :

Fairbanks, ألاسكا, الولايات المتحدة

دائرة عرض: 64-48-14N, خط طول: 147-52-34W, ارتفاع: 132 متر

مراقبة الطقس الحالي

تاريخ ووقت الإصدار 17 دقيقة قبل الساعة 16:53UTC
ريح 3 عقدة من الشمال/الشمال الغربي
درجة الحرارة -15°درجة مئوية
الرطوبة 65%
ضغط 1014 hPa
الرؤية: 16.1 كم
غيوم مفككة على ارتفاع 4500 قدم
ملبد بالغيوم على ارتفاع 12000 قدم

METAR: PAFA 041653Z 33003KT 10SM BKN045 OVC120 M15/M20 A2993 RMK AO2 SLP151 T11501200

زمن: 08:10 (17:10 UTC)

توقعات

تاريخ ووقت الإصدار 5ساعات و 44 دقيقة قبل الساعة 11:26UTC
التوقعات صالحة من04 الساعة 12 UTC إلى 05 الساعة 18 UTC
ريح 3 عقدةمن اتجاهات متغيرة
الرؤية: 10 كم
ملبد بالغيوم على ارتفاع 6000 قدم
من 05 الساعة 0300 UTC
ريح 2 عقدة من الشمال الشرقي
الرؤية: 9.7 كم
ملبد بالغيوم على ارتفاع 4000 قدم
ثلوج خفيفة
من 05 الساعة 0900 UTC
ريح 2 عقدةمن اتجاهات متغيرة
الرؤية: 3.2 كم
ملبد بالغيوم على ارتفاع 3000 قدم
ثلوج خفيفة, غشاء,

TAF: PAFA 041126Z 0412/0518 VRB03KT P6SM OVC060 FM050300 05002KT 6SM -SN OVC040 FM050900 VRB02KT 2SM -SN BR OVC030

أرصاد الطقس والتوقعات من أكثر من 4000 مطار (تقارير الطقس للمطار METAR والتنبؤ بالطقس بالمطارTAF).

المحطات المتاحة هي النقط الصفراء والحمراء على الخريطة.

حرك المؤشر فوق النقطة لمعرفة اسم المحطة.

ثم انقر لمعرفة أرصاد وتوقعات الطقس.

لتغيير الخارطة: اضغط على الأزرار الخضراء مع رمز الصليب الأسود للتكبير. على الزر الأخضر مع شرطة للتصغير، أو على الأسهم الخضراء للخرائط المجاورة.


METAR-TAF: